Höpen Airfield

DE-0104 · 下萨克森, 德国

罗盘
风向 的 风向 320°
风: 3 kt, 1 beaufort

添加一条跑道以查看侧风和逆风信息。

添置 跑道
0 ft 1.000 2.000 3.000 4.000 5.000
METAR ETHS 052330Z 32003KT 0900 FZFG M01/M01 Q1039 BLACKAMB

METAR Höpen Airfield - DE-0104

Höpen Airfield是,德国中的小机场。 视场标高为275 ft。 该领域的国际民航组织标志是DE-0104.

这份报告是针对2023年2月6日 00:30, 当地时间在Fassberg Air Base进行的。

机场观察

风向为320°,速度为3 kt。

可见度为900 m。

有。 没有观察到天花板。

当前天气为冷冻 多雾路段。 温度为-1 °C,阵风为-5 °C。 露点为-1 °C,相对湿度为100%。 海平面上的气压为1039 hPa (QNH)。

白天

今天,太阳从07:56升起,在17:13降落。 这适用于Höpen Airfield,世界夏令时可能有所不同。 当地时间与世界标准时间之间的时差为+1 小时。 当前,没有夏令时有效。

公司介绍

我们没有关于这个机场的公司信息。

体会

到Vliegles.nl去找飞行课程,跳伞和其他飞行体验。 浏览页面,了解Höpen Airfield附近所有可用的活动。 你也可以使用搜索功能来寻找你所在地附近的特定飞行课程、跳伞或其他飞行体验。

温度 & 天气

天气 冷冻 多雾路段
温度 -1 °C
露点 -1 °C
相对湿度 100%
风寒 -5 °C
Kp-index 0 (0-9)

白天

日出
07:55 (6:25)
中午
12:33
日落
17:10

小工具

你想在你的网站上有一个关于Höpen Airfield的当前航空天气(METAR)的小部件吗?

显示HTML代码

我们和第三方通过cookies跟踪您在我们网站上的互联网行为。如果你继续,我们认为你同意我们的饼干政策